Time;durP1;ratioP1;P1;durP2;ratioP2;P2;SDS_P1;SDS_P2;PMS_P1;PMS_P2;Temp;Humidity;BMP_temperature;BMP_pressure;BME280_temperature;BME280_humidity;BME280_pressure;Samples;Min_cycle;Max_cycle;Signal;HPM_P1;HPM_P2
2024/03/12 00:00:16;;;;;;;;;;;;;;;9.59;52.70;97412.31;5089623;28;19928;-79
2024/03/12 00:02:47;;;;;;;;;;;;;;;9.46;52.94;97405.88;5078807;28;19946;-79
2024/03/12 00:05:15;;;;;;;;;;;;;;;9.58;52.72;97413.38;5082272;28;19924;-91
2024/03/12 00:07:42;;;;;;;;;;;;;;;9.55;52.57;97414.03;5094922;28;19924;-91
2024/03/12 00:10:14;;;;;;;;;;;;;;;9.62;52.43;97419.78;5070464;28;19928;-92
2024/03/12 00:12:47;;;;;;;;;;;;;;;9.63;52.79;97410.53;5088338;28;20421;-91
2024/03/12 00:15:18;;;;;;;;;;;;;;;9.55;52.96;97409.41;5063243;28;19947;-92
2024/03/12 00:17:50;;;;;;;;;;;;;;;9.52;53.12;97415.47;5071324;28;20015;-92
2024/03/12 00:20:24;;;;;;;;;;;;;;;9.56;52.98;97415.63;5066526;28;19970;-92
2024/03/12 00:22:52;;;;;;;;;;;;;;;9.52;53.19;97414.66;5079189;28;19924;-91
2024/03/12 00:25:20;;;;;;;;;;;;;;;9.35;53.88;97420.84;5063892;28;19959;-91
2024/03/12 00:27:48;;;;;;;;;;;;;;;9.27;54.16;97430.56;5079755;28;19928;-92
2024/03/12 00:30:18;;;;;;;;;;;;;;;9.21;54.40;97420.94;5081259;28;19924;-92
2024/03/12 00:36:22;;;;;;;;;;;;;;;8.99;55.01;97435.38;5064636;28;19925;-93
2024/03/12 00:38:50;;;;;;;;;;;;;;;9.00;55.06;97441.59;5092495;28;20428;-92
2024/03/12 00:41:20;;;;;;;;;;;;;;;8.96;54.89;97446.06;5080840;28;19924;-92
2024/03/12 00:43:48;;;;;;;;;;;;;;;8.85;55.02;97446.31;5077610;28;19924;-93
2024/03/12 00:46:15;;;;;;;;;;;;;;;8.77;55.18;97448.97;5094698;28;19924;-90
2024/03/12 00:48:43;;;;;;;;;;;;;;;8.66;55.62;97456.56;5079680;28;19925;-93
2024/03/12 00:51:12;;;;;;;;;;;;;;;8.65;55.35;97461.19;5087546;28;19924;-92
2024/03/12 00:53:42;;;;;;;;;;;;;;;8.54;55.29;97456.34;5058894;28;19934;-92
2024/03/12 00:56:10;;;;;;;;;;;;;;;8.54;55.73;97461.75;5085695;28;19931;-93
2024/03/12 00:58:39;;;;;;;;;;;;;;;8.53;55.65;97457.44;5077010;28;19924;-93
2024/03/12 01:01:14;;;;;;;;;;;;;;;8.37;55.88;97462.44;5079075;28;19989;-93
2024/03/12 01:03:43;;;;;;;;;;;;;;;8.20;55.83;97462.25;5073426;28;20407;-93
2024/03/12 01:06:11;;;;;;;;;;;;;;;8.07;56.75;97461.22;5081474;28;20469;-93
2024/03/12 01:08:39;;;;;;;;;;;;;;;8.10;56.41;97474.13;5083985;28;19932;-92
2024/03/12 01:11:09;;;;;;;;;;;;;;;8.12;56.17;97471.91;5067240;28;19975;-92
2024/03/12 01:13:39;;;;;;;;;;;;;;;8.04;56.64;97475.34;5078259;28;20003;-93
2024/03/12 01:16:07;;;;;;;;;;;;;;;8.05;56.88;97468.84;5069654;28;19924;-88
2024/03/12 01:18:35;;;;;;;;;;;;;;;8.02;57.03;97462.13;5077748;28;19924;-88
2024/03/12 01:21:03;;;;;;;;;;;;;;;8.15;56.42;97471.31;5063493;28;20383;-88
2024/03/12 01:23:31;;;;;;;;;;;;;;;8.21;56.48;97472.00;5082218;28;20035;-88
2024/03/12 01:25:59;;;;;;;;;;;;;;;8.03;56.97;97474.53;5094125;28;19953;-88
2024/03/12 01:28:28;;;;;;;;;;;;;;;7.95;56.75;97480.69;5097090;28;19970;-88
2024/03/12 01:30:56;;;;;;;;;;;;;;;7.78;56.83;97475.91;5083296;28;19967;-88
2024/03/12 01:33:27;;;;;;;;;;;;;;;7.80;57.08;97471.00;5093256;28;19924;-88
2024/03/12 01:36:05;;;;;;;;;;;;;;;7.82;57.14;97471.47;5075651;28;19929;-88
2024/03/12 01:38:34;;;;;;;;;;;;;;;7.77;57.16;97474.28;5092257;28;19928;-88
2024/03/12 01:41:05;;;;;;;;;;;;;;;7.78;56.86;97478.63;5080719;28;19931;-88
2024/03/12 01:43:35;;;;;;;;;;;;;;;7.65;57.74;97479.44;5091233;28;20051;-88
2024/03/12 01:46:03;;;;;;;;;;;;;;;7.73;57.14;97480.63;5079009;28;19925;-88
2024/03/12 01:48:31;;;;;;;;;;;;;;;7.68;57.57;97473.44;5095750;28;20410;-88
2024/03/12 01:50:59;;;;;;;;;;;;;;;7.65;57.46;97476.72;5094241;28;19973;-88
2024/03/12 01:53:27;;;;;;;;;;;;;;;7.62;57.66;97480.06;5076361;28;19982;-88
2024/03/12 01:55:55;;;;;;;;;;;;;;;7.57;57.60;97480.97;5070387;28;19948;-87
2024/03/12 01:58:23;;;;;;;;;;;;;;;7.42;58.24;97475.84;5085262;28;19924;-88
2024/03/12 02:00:52;;;;;;;;;;;;;;;7.41;58.19;97478.88;5075634;28;20034;-89
2024/03/12 02:03:20;;;;;;;;;;;;;;;7.33;58.14;97488.47;5083930;28;20416;-88
2024/03/12 02:05:48;;;;;;;;;;;;;;;7.47;58.05;97486.56;5086921;28;19939;-88
2024/03/12 02:08:16;;;;;;;;;;;;;;;7.34;58.13;97485.44;5068321;28;19935;-88
2024/03/12 02:10:45;;;;;;;;;;;;;;;7.32;58.36;97479.56;5080411;28;19932;-88
2024/03/12 02:13:13;;;;;;;;;;;;;;;7.38;58.12;97482.16;5092276;28;19930;-88
2024/03/12 02:15:43;;;;;;;;;;;;;;;7.32;58.49;97492.28;5073667;28;19933;-88
2024/03/12 02:18:16;;;;;;;;;;;;;;;7.32;58.34;97487.66;5066533;28;19928;-88
2024/03/12 02:20:45;;;;;;;;;;;;;;;7.33;58.39;97505.47;5065302;28;19929;-88
2024/03/12 02:23:13;;;;;;;;;;;;;;;7.28;58.71;97513.69;5064697;28;19924;-88
2024/03/12 02:25:44;;;;;;;;;;;;;;;7.20;58.80;97511.69;5084421;28;19932;-88
2024/03/12 02:28:12;;;;;;;;;;;;;;;7.42;58.13;97502.09;5079061;28;19974;-88
2024/03/12 02:30:41;;;;;;;;;;;;;;;7.28;58.05;97512.88;5059281;28;20287;-87
2024/03/12 02:33:09;;;;;;;;;;;;;;;7.28;58.54;97508.28;5068601;28;19985;-88
2024/03/12 02:35:37;;;;;;;;;;;;;;;7.00;58.73;97512.06;5092773;28;19927;-88
2024/03/12 02:38:05;;;;;;;;;;;;;;;7.06;58.58;97518.97;5083136;28;19924;-88
2024/03/12 02:40:39;;;;;;;;;;;;;;;6.93;59.01;97522.44;5089614;28;19927;-89
2024/03/12 02:43:08;;;;;;;;;;;;;;;6.86;59.28;97522.81;5073338;28;20023;-88
2024/03/12 02:45:38;;;;;;;;;;;;;;;6.85;59.78;97529.31;5088297;28;19974;-88
2024/03/12 02:48:07;;;;;;;;;;;;;;;6.92;59.33;97531.63;5080649;28;19924;-88
2024/03/12 02:50:34;;;;;;;;;;;;;;;6.95;59.37;97529.13;5076148;28;19932;-88
2024/03/12 02:53:02;;;;;;;;;;;;;;;6.96;59.33;97532.63;5085343;28;19974;-88
2024/03/12 02:55:30;;;;;;;;;;;;;;;6.97;59.49;97535.03;5080435;28;20018;-89
2024/03/12 02:57:58;;;;;;;;;;;;;;;6.94;59.44;97540.25;5068438;28;19943;-89
2024/03/12 03:00:28;;;;;;;;;;;;;;;6.95;59.69;97533.75;5072355;28;19932;-88
2024/03/12 03:02:57;;;;;;;;;;;;;;;6.92;59.16;97540.53;5070696;28;19932;-89
2024/03/12 03:05:25;;;;;;;;;;;;;;;6.83;59.60;97540.41;5084595;28;19970;-89
2024/03/12 03:07:54;;;;;;;;;;;;;;;6.78;59.79;97545.91;5091705;28;19938;-89
2024/03/12 03:10:22;;;;;;;;;;;;;;;6.73;59.87;97548.69;5100917;28;19932;-89
2024/03/12 03:12:50;;;;;;;;;;;;;;;6.81;59.59;97550.69;5095772;28;20379;-89
2024/03/12 03:15:20;;;;;;;;;;;;;;;6.76;59.83;97556.19;5084753;28;19928;-87
2024/03/12 03:17:49;;;;;;;;;;;;;;;6.77;59.87;97557.81;5089522;28;20036;-88
2024/03/12 03:20:20;;;;;;;;;;;;;;;6.68;60.24;97564.16;5061345;28;19924;-89
2024/03/12 03:22:47;;;;;;;;;;;;;;;6.76;59.47;97561.56;5075030;28;19973;-88
2024/03/12 03:25:15;;;;;;;;;;;;;;;6.80;59.76;97567.19;5067424;28;19932;-88
2024/03/12 03:27:43;;;;;;;;;;;;;;;6.75;59.48;97568.06;5084968;28;19924;-89
2024/03/12 03:30:12;;;;;;;;;;;;;;;6.67;59.97;97570.66;5076933;28;19928;-89
2024/03/12 03:32:40;;;;;;;;;;;;;;;6.60;59.93;97573.72;5076318;28;19924;-89
2024/03/12 03:35:10;;;;;;;;;;;;;;;6.52;60.36;97574.38;5075463;28;19928;-79
2024/03/12 03:37:40;;;;;;;;;;;;;;;6.48;60.39;97566.06;5094787;28;19923;-79
2024/03/12 03:40:10;;;;;;;;;;;;;;;6.52;60.57;97569.00;5072960;28;19928;-80
2024/03/12 03:42:39;;;;;;;;;;;;;;;6.38;60.32;97577.00;5071589;28;19924;-80
2024/03/12 03:45:08;;;;;;;;;;;;;;;6.29;60.86;97579.59;5077814;28;20390;-80
2024/03/12 03:47:35;;;;;;;;;;;;;;;6.25;60.79;97580.44;5072583;28;19928;-80
2024/03/12 03:50:03;;;;;;;;;;;;;;;6.25;60.87;97583.16;5088144;28;19932;-80
2024/03/12 03:52:32;;;;;;;;;;;;;;;6.18;61.23;97578.13;5074867;28;19930;-80
2024/03/12 03:55:01;;;;;;;;;;;;;;;6.19;61.30;97584.31;5074024;28;19938;-80
2024/03/12 03:57:29;;;;;;;;;;;;;;;6.18;61.61;97582.69;5087730;28;20321;-79
2024/03/12 03:59:57;;;;;;;;;;;;;;;6.28;60.96;97590.63;5068714;28;19929;-80
2024/03/12 04:02:25;;;;;;;;;;;;;;;6.29;60.66;97584.97;5073723;28;19934;-80
2024/03/12 04:04:52;;;;;;;;;;;;;;;6.10;61.15;97586.84;5073981;28;19928;-80
2024/03/12 04:07:20;;;;;;;;;;;;;;;6.04;61.30;97588.00;5092126;28;19928;-80
2024/03/12 04:09:49;;;;;;;;;;;;;;;6.14;60.99;97593.28;5078705;28;19935;-80
2024/03/12 04:12:17;;;;;;;;;;;;;;;6.13;61.04;97597.06;5094001;28;19924;-79
2024/03/12 04:14:46;;;;;;;;;;;;;;;6.11;60.90;97601.13;5061465;28;20508;-79
2024/03/12 04:17:14;;;;;;;;;;;;;;;6.06;60.79;97599.28;5085098;28;19939;-79
2024/03/12 04:19:42;;;;;;;;;;;;;;;5.99;61.07;97601.56;5077591;28;20387;-81
2024/03/12 04:22:09;;;;;;;;;;;;;;;5.95;61.68;97606.72;5097466;28;20022;-80
2024/03/12 04:24:37;;;;;;;;;;;;;;;6.01;61.42;97605.56;5076205;28;19928;-80
2024/03/12 04:27:07;;;;;;;;;;;;;;;6.04;61.26;97614.97;5093004;28;19971;-80
2024/03/12 04:29:35;;;;;;;;;;;;;;;6.09;61.13;97619.50;5079484;28;19939;-81
2024/03/12 04:32:02;;;;;;;;;;;;;;;6.06;61.29;97618.19;5081302;28;19931;-80
2024/03/12 04:34:32;;;;;;;;;;;;;;;6.07;61.17;97616.28;5072175;28;20022;-80
2024/03/12 04:37:00;;;;;;;;;;;;;;;6.15;60.63;97623.75;5074264;28;20027;-80
2024/03/12 04:39:31;;;;;;;;;;;;;;;6.08;60.94;97623.31;5076345;28;20394;-78
2024/03/12 04:42:00;;;;;;;;;;;;;;;6.17;60.48;97624.25;5073017;28;19945;-79
2024/03/12 04:44:31;;;;;;;;;;;;;;;6.15;60.90;97627.25;5072454;28;19925;-86
2024/03/12 04:46:59;;;;;;;;;;;;;;;6.20;60.06;97635.25;5074191;28;19928;-86
2024/03/12 04:49:27;;;;;;;;;;;;;;;6.15;59.82;97637.22;5073251;28;19935;-87
2024/03/12 04:51:55;;;;;;;;;;;;;;;6.18;59.48;97636.63;5072046;28;19928;-85
2024/03/12 04:54:23;;;;;;;;;;;;;;;6.07;59.52;97635.16;5081247;28;19974;-87
2024/03/12 04:56:51;;;;;;;;;;;;;;;5.91;59.92;97643.44;5075375;28;20533;-86
2024/03/12 04:59:18;;;;;;;;;;;;;;;5.92;59.78;97649.66;5076843;28;19929;-86
2024/03/12 05:01:49;;;;;;;;;;;;;;;5.71;60.12;97655.22;5077322;28;19934;-87
2024/03/12 05:04:19;;;;;;;;;;;;;;;5.64;60.68;97660.13;5073612;28;20019;-87
2024/03/12 05:06:49;;;;;;;;;;;;;;;5.71;60.22;97660.63;5089653;28;20039;-87
2024/03/12 05:09:18;;;;;;;;;;;;;;;5.76;60.01;97662.47;5066288;28;19931;-87
2024/03/12 05:11:46;;;;;;;;;;;;;;;5.88;59.85;97664.75;5076394;28;19977;-88
2024/03/12 05:14:19;;;;;;;;;;;;;;;5.90;59.82;97666.06;5073474;28;19939;-86
2024/03/12 05:16:48;;;;;;;;;;;;;;;5.95;59.56;97678.72;5088226;28;19924;-87
2024/03/12 05:19:16;;;;;;;;;;;;;;;6.07;59.52;97678.31;5101845;28;20699;-88
2024/03/12 05:21:44;;;;;;;;;;;;;;;6.26;58.42;97679.16;5082815;28;19924;-87
2024/03/12 05:24:17;;;;;;;;;;;;;;;6.34;58.13;97681.25;5106170;28;19928;-87
2024/03/12 05:26:45;;;;;;;;;;;;;;;6.15;58.75;97677.69;5089339;28;19935;-88
2024/03/12 05:29:13;;;;;;;;;;;;;;;6.02;59.15;97687.28;5089700;28;19954;-88
2024/03/12 05:31:40;;;;;;;;;;;;;;;6.01;59.67;97686.44;5097050;28;19931;-87
2024/03/12 05:34:18;;;;;;;;;;;;;;;6.22;58.96;97688.91;5086581;28;19989;-88
2024/03/12 05:36:49;;;;;;;;;;;;;;;6.38;58.32;97690.34;5080490;28;19931;-87
2024/03/12 05:39:26;;;;;;;;;;;;;;;6.30;58.37;97689.09;5096274;28;19928;-90
2024/03/12 05:50:10;;;;;;;;;;;;;;;5.65;60.62;97704.88;5086023;28;20384;-95
2024/03/12 05:52:38;;;;;;;;;;;;;;;5.89;60.38;97704.09;5074777;28;19928;-83
2024/03/12 05:55:07;;;;;;;;;;;;;;;6.02;60.01;97708.84;5077679;28;19971;-78
2024/03/12 05:57:35;;;;;;;;;;;;;;;6.14;60.11;97709.25;5086958;28;19934;-83
2024/03/12 06:00:04;;;;;;;;;;;;;;;6.29;59.24;97709.06;5072434;28;19931;-85
2024/03/12 06:02:39;;;;;;;;;;;;;;;6.00;59.91;97711.03;5088021;28;19924;-92
2024/03/12 06:05:07;;;;;;;;;;;;;;;6.16;59.42;97714.34;5091405;28;20361;-93
2024/03/12 06:07:36;;;;;;;;;;;;;;;5.92;60.26;97711.66;5067878;28;19925;-78
2024/03/12 06:10:04;;;;;;;;;;;;;;;5.85;60.74;97713.84;5081418;28;19954;-78
2024/03/12 06:12:32;;;;;;;;;;;;;;;5.75;60.87;97720.97;5060206;28;19925;-78
2024/03/12 06:14:59;;;;;;;;;;;;;;;5.87;60.55;97719.78;5089866;28;19924;-89
2024/03/12 06:17:27;;;;;;;;;;;;;;;5.95;60.55;97722.66;5066833;28;19932;-87
2024/03/12 06:19:55;;;;;;;;;;;;;;;6.06;60.21;97722.56;5089092;28;20376;-76
2024/03/12 06:22:23;;;;;;;;;;;;;;;6.02;60.15;97728.53;5084155;28;20032;-92
2024/03/12 06:24:52;;;;;;;;;;;;;;;6.34;59.59;97728.97;5071770;28;19939;-79
2024/03/12 06:27:20;;;;;;;;;;;;;;;6.40;59.93;97727.84;5071413;28;19973;-79
2024/03/12 06:29:51;;;;;;;;;;;;;;;6.29;59.97;97722.56;5070919;28;19924;-94
2024/03/12 06:32:20;;;;;;;;;;;;;;;6.24;60.04;97730.72;5057058;28;19969;-77
2024/03/12 06:34:48;;;;;;;;;;;;;;;6.46;59.66;97734.78;5082934;28;19936;-77
2024/03/12 06:37:17;;;;;;;;;;;;;;;6.28;60.43;97739.03;5065134;28;19928;-78
2024/03/12 06:39:46;;;;;;;;;;;;;;;6.59;59.58;97739.47;5066503;28;19956;-77
2024/03/12 06:42:15;;;;;;;;;;;;;;;6.59;59.94;97744.06;5070014;28;20417;-77
2024/03/12 06:44:43;;;;;;;;;;;;;;;6.56;59.92;97754.34;5058900;28;19924;-78
2024/03/12 06:47:12;;;;;;;;;;;;;;;6.64;59.95;97752.09;5087787;28;20005;-77
2024/03/12 06:49:44;;;;;;;;;;;;;;;6.78;59.62;97748.41;5089507;28;19924;-78
2024/03/12 06:52:11;;;;;;;;;;;;;;;6.96;59.48;97752.19;5090015;28;19928;-77
2024/03/12 06:54:39;;;;;;;;;;;;;;;6.77;59.94;97749.50;5089641;28;19923;-77
2024/03/12 06:57:10;;;;;;;;;;;;;;;6.89;59.49;97749.06;5071231;28;19934;-77
2024/03/12 06:59:47;;;;;;;;;;;;;;;6.89;59.69;97756.38;5091959;28;19924;-77
2024/03/12 07:02:16;;;;;;;;;;;;;;;6.90;59.73;97756.06;5091737;28;20462;-76
2024/03/12 07:04:47;;;;;;;;;;;;;;;6.97;60.16;97753.81;5079977;28;19932;-85
2024/03/12 07:07:18;;;;;;;;;;;;;;;7.16;59.54;97764.63;5095339;28;19924;-85
2024/03/12 07:09:46;;;;;;;;;;;;;;;7.18;59.38;97754.31;5086541;28;19931;-83
2024/03/12 07:12:16;;;;;;;;;;;;;;;7.17;59.29;97766.22;5076178;28;19974;-85
2024/03/12 07:14:54;;;;;;;;;;;;;;;7.25;59.75;97760.16;5092468;28;19955;-85
2024/03/12 07:17:50;;;;;;;;;;;;;;;7.13;60.39;97759.78;5073625;28;19970;-83
2024/03/12 07:20:20;;;;;;;;;;;;;;;7.37;59.80;97756.22;5085663;28;19924;-84
2024/03/12 07:22:48;;;;;;;;;;;;;;;7.34;59.99;97760.28;5092516;28;19935;-85
2024/03/12 07:25:16;;;;;;;;;;;;;;;7.25;60.28;97760.16;5094002;28;19925;-84
2024/03/12 07:27:44;;;;;;;;;;;;;;;7.19;60.55;97760.50;5089840;28;19935;-84
2024/03/12 07:30:14;;;;;;;;;;;;;;;7.11;61.08;97763.91;5090728;28;19924;-85
2024/03/12 07:32:42;;;;;;;;;;;;;;;7.22;60.86;97763.44;5105544;28;20453;-85
2024/03/12 07:35:10;;;;;;;;;;;;;;;7.45;60.55;97766.34;5075964;28;19924;-85
2024/03/12 07:37:39;;;;;;;;;;;;;;;7.51;60.94;97766.00;5090486;28;19939;-84
2024/03/12 07:40:09;;;;;;;;;;;;;;;7.54;60.73;97764.59;5109365;28;20014;-84
2024/03/12 07:42:38;;;;;;;;;;;;;;;7.69;60.51;97772.44;5093334;28;19943;-84
2024/03/12 07:45:06;;;;;;;;;;;;;;;7.63;60.77;97778.25;5101053;28;20386;-84
2024/03/12 07:47:35;;;;;;;;;;;;;;;7.84;60.73;97779.50;5093868;28;19924;-84
2024/03/12 07:50:03;;;;;;;;;;;;;;;7.99;60.29;97776.56;5104652;28;19931;-84
2024/03/12 07:52:31;;;;;;;;;;;;;;;8.10;60.31;97777.19;5108190;28;19930;-84
2024/03/12 07:54:59;;;;;;;;;;;;;;;8.23;60.04;97770.97;5107444;28;19928;-82
2024/03/12 07:57:26;;;;;;;;;;;;;;;8.29;59.95;97772.47;5097341;28;19931;-83
2024/03/12 07:59:54;;;;;;;;;;;;;;;8.34;59.98;97783.19;5109157;28;20018;-84
2024/03/12 08:02:22;;;;;;;;;;;;;;;8.37;59.98;97793.47;5093659;28;19933;-84
2024/03/12 08:04:51;;;;;;;;;;;;;;;8.42;59.97;97789.88;5078023;28;19934;-83
2024/03/12 08:07:20;;;;;;;;;;;;;;;8.54;59.90;97786.66;5105731;28;19934;-83
2024/03/12 08:09:51;;;;;;;;;;;;;;;8.57;59.45;97791.47;5099798;28;19924;-84
2024/03/12 08:12:19;;;;;;;;;;;;;;;8.59;59.79;97797.41;5097309;28;19928;-84
2024/03/12 08:14:48;;;;;;;;;;;;;;;8.52;59.95;97789.69;5056058;28;19928;-83
2024/03/12 08:17:16;;;;;;;;;;;;;;;8.62;59.93;97794.88;5088524;28;19959;-84
2024/03/12 08:19:44;;;;;;;;;;;;;;;8.79;59.59;97788.88;5093891;28;19924;-84
2024/03/12 08:22:13;;;;;;;;;;;;;;;8.79;59.58;97788.88;5089886;28;19924;-83
2024/03/12 08:24:41;;;;;;;;;;;;;;;8.89;59.80;97790.53;5073861;28;19969;-83
2024/03/12 08:27:09;;;;;;;;;;;;;;;8.93;59.34;97794.25;5068749;28;20265;-82
2024/03/12 08:29:37;;;;;;;;;;;;;;;8.98;59.43;97793.34;5083445;28;19934;-83
2024/03/12 08:32:05;;;;;;;;;;;;;;;9.04;59.40;97801.06;5073190;28;19956;-83
2024/03/12 08:34:33;;;;;;;;;;;;;;;9.18;59.19;97798.34;5082550;28;20020;-83
2024/03/12 08:37:03;;;;;;;;;;;;;;;9.23;58.93;97803.66;5072665;28;19928;-83
2024/03/12 08:39:32;;;;;;;;;;;;;;;9.40;58.57;97803.78;5056528;28;19925;-83
2024/03/12 08:42:00;;;;;;;;;;;;;;;9.40;58.70;97803.78;5092140;28;19928;-83
2024/03/12 08:44:30;;;;;;;;;;;;;;;9.54;58.71;97808.38;5091922;28;20597;-83
2024/03/12 08:46:58;;;;;;;;;;;;;;;9.54;58.65;97806.47;5089037;28;19985;-82
2024/03/12 08:49:29;;;;;;;;;;;;;;;9.59;58.53;97809.06;5090318;28;19964;-81
2024/03/12 08:51:57;;;;;;;;;;;;;;;9.63;58.81;97810.03;5093510;28;19931;-83
2024/03/12 08:54:24;;;;;;;;;;;;;;;9.56;58.81;97808.88;5092378;28;19930;-82
2024/03/12 08:56:54;;;;;;;;;;;;;;;9.61;59.37;97809.56;5090654;28;19932;-82
2024/03/12 08:59:22;;;;;;;;;;;;;;;9.58;60.02;97812.84;5081371;28;19928;-82
2024/03/12 09:01:49;;;;;;;;;;;;;;;9.63;60.01;97822.78;5067359;28;19931;-83
2024/03/12 09:04:18;;;;;;;;;;;;;;;9.63;60.32;97811.94;5092304;28;19932;-83
2024/03/12 09:06:49;;;;;;;;;;;;;;;9.74;60.10;97823.34;5088928;28;20364;-83
2024/03/12 09:09:21;;;;;;;;;;;;;;;9.74;60.58;97818.72;5087382;28;19928;-82
2024/03/12 09:11:49;;;;;;;;;;;;;;;9.87;60.34;97823.31;5073671;28;19929;-83
2024/03/12 09:14:19;;;;;;;;;;;;;;;9.78;60.02;97829.78;5079858;28;19929;-83
2024/03/12 09:16:48;;;;;;;;;;;;;;;9.76;59.84;97832.00;5083286;28;19924;-83
2024/03/12 09:19:22;;;;;;;;;;;;;;;9.95;59.84;97825.25;5088480;28;20014;-83
2024/03/12 09:21:49;;;;;;;;;;;;;;;9.85;59.73;97822.78;5091929;28;19967;-83
2024/03/12 09:24:18;;;;;;;;;;;;;;;9.91;59.38;97820.78;5066068;28;19924;-83
2024/03/12 09:26:46;;;;;;;;;;;;;;;9.82;59.35;97830.78;5069299;28;19924;-83
2024/03/12 09:29:14;;;;;;;;;;;;;;;9.74;59.51;97835.00;5088894;28;20297;-82
2024/03/12 09:31:44;;;;;;;;;;;;;;;9.69;59.65;97829.69;5073125;28;20265;-82
2024/03/12 09:34:12;;;;;;;;;;;;;;;9.83;59.36;97833.16;5076611;28;19956;-83
2024/03/12 09:36:40;;;;;;;;;;;;;;;9.71;59.72;97831.00;5080865;28;19959;-83
2024/03/12 09:39:10;;;;;;;;;;;;;;;9.85;59.73;97835.56;5067644;28;19928;-83
2024/03/12 09:41:39;;;;;;;;;;;;;;;9.78;59.71;97830.56;5091447;28;20348;-83
2024/03/12 09:44:09;;;;;;;;;;;;;;;9.84;59.75;97839.41;5079724;28;19924;-83
2024/03/12 09:46:36;;;;;;;;;;;;;;;9.91;59.66;97837.06;5073785;28;19973;-82
2024/03/12 09:49:07;;;;;;;;;;;;;;;9.84;59.65;97837.47;5094131;28;19932;-82
2024/03/12 09:51:35;;;;;;;;;;;;;;;9.76;59.82;97843.66;5098589;28;19974;-81
2024/03/12 09:54:04;;;;;;;;;;;;;;;9.83;59.90;97844.03;5066843;28;20507;-82
2024/03/12 09:56:32;;;;;;;;;;;;;;;9.75;59.94;97842.06;5088724;28;19924;-82
2024/03/12 09:59:00;;;;;;;;;;;;;;;9.81;60.03;97846.25;5075405;28;20029;-83
2024/03/12 10:01:29;;;;;;;;;;;;;;;9.92;59.92;97846.81;5080837;28;20624;-82
2024/03/12 10:03:57;;;;;;;;;;;;;;;9.88;59.77;97852.03;5072260;28;19923;-82
2024/03/12 10:06:27;;;;;;;;;;;;;;;9.94;59.76;97850.81;5098950;28;19924;-82
2024/03/12 10:08:56;;;;;;;;;;;;;;;10.07;59.58;97853.78;5089489;28;20597;-82
2024/03/12 10:11:24;;;;;;;;;;;;;;;10.11;59.58;97846.59;5098322;28;20022;-83
2024/03/12 10:13:55;;;;;;;;;;;;;;;10.16;59.44;97857.34;5101298;28;19946;-82
2024/03/12 10:16:24;;;;;;;;;;;;;;;10.15;59.27;97856.53;5105298;28;20298;-85
2024/03/12 10:19:09;;;;;;;;;;;;;;;10.30;58.88;97863.53;5075811;28;19930;-86
2024/03/12 10:21:40;;;;;;;;;;;;;;;10.31;58.43;97856.19;5091029;28;20364;-85
2024/03/12 10:24:13;;;;;;;;;;;;;;;10.30;58.54;97866.25;5082812;28;20439;-85
2024/03/12 10:26:41;;;;;;;;;;;;;;;10.37;58.60;97860.38;5086624;28;19986;-86
2024/03/12 10:29:10;;;;;;;;;;;;;;;10.38;58.57;97862.78;5093099;28;19924;-86
2024/03/12 10:32:00;;;;;;;;;;;;;;;10.38;58.32;97862.78;5073129;28;19931;-85
2024/03/12 10:34:33;;;;;;;;;;;;;;;10.34;58.42;97859.09;5078713;28;20368;-86
2024/03/12 10:37:04;;;;;;;;;;;;;;;10.22;58.44;97859.59;5071471;28;19934;-86
2024/03/12 10:39:35;;;;;;;;;;;;;;;10.33;58.44;97868.34;5095663;28;19931;-86
2024/03/12 10:42:03;;;;;;;;;;;;;;;10.29;58.43;97867.38;5086658;28;19928;-85
2024/03/12 10:44:32;;;;;;;;;;;;;;;10.16;58.72;97862.78;5096771;28;19928;-85
2024/03/12 10:47:00;;;;;;;;;;;;;;;10.25;58.52;97860.16;5097269;28;19938;-85
2024/03/12 10:49:28;;;;;;;;;;;;;;;10.19;58.83;97868.38;5097846;28;19924;-86
2024/03/12 10:51:56;;;;;;;;;;;;;;;10.04;59.08;97870.69;5077331;28;19924;-86
2024/03/12 10:54:30;;;;;;;;;;;;;;;10.12;59.09;97869.91;5086707;28;19960;-86
2024/03/12 10:57:02;;;;;;;;;;;;;;;10.10;58.94;97869.44;5080221;28;19928;-86
2024/03/12 10:59:31;;;;;;;;;;;;;;;10.23;58.96;97874.84;5044224;28;19925;-85
2024/03/12 11:01:59;;;;;;;;;;;;;;;10.19;58.92;97873.03;5067116;28;19970;-86
2024/03/12 11:04:27;;;;;;;;;;;;;;;10.25;59.04;97873.72;5067842;28;19925;-85
2024/03/12 11:06:55;;;;;;;;;;;;;;;10.27;58.81;97871.50;5046249;28;19924;-85
2024/03/12 11:09:28;;;;;;;;;;;;;;;10.06;59.46;97869.25;5039536;28;19924;-86
2024/03/12 11:11:58;;;;;;;;;;;;;;;10.14;59.38;97868.50;5040681;28;19935;-85
2024/03/12 11:14:27;;;;;;;;;;;;;;;10.17;59.27;97875.22;5047724;28;19947;-85
2024/03/12 11:16:55;;;;;;;;;;;;;;;10.21;59.15;97878.94;5067416;28;19939;-86
2024/03/12 11:19:24;;;;;;;;;;;;;;;10.28;59.10;97873.09;5056594;28;20335;-85
2024/03/12 11:21:53;;;;;;;;;;;;;;;10.15;59.22;97877.47;5067497;28;19967;-86
2024/03/12 11:24:25;;;;;;;;;;;;;;;10.01;59.41;97876.72;5052437;28;20325;-82
2024/03/12 11:26:53;;;;;;;;;;;;;;;10.10;59.43;97875.66;5062516;28;19939;-82
2024/03/12 11:29:22;;;;;;;;;;;;;;;10.14;59.41;97875.84;5055211;28;19954;-82
2024/03/12 11:31:51;;;;;;;;;;;;;;;10.13;59.65;97874.25;5056956;28;19925;-83
2024/03/12 11:34:31;;;;;;;;;;;;;;;10.08;59.68;97877.09;5055032;28;19940;-82
2024/03/12 11:37:12;;;;;;;;;;;;;;;10.04;59.84;97881.53;5041143;28;19963;-82
2024/03/12 11:39:40;;;;;;;;;;;;;;;10.11;59.68;97873.75;5043884;28;19928;-82
2024/03/12 11:42:11;;;;;;;;;;;;;;;10.19;59.35;97864.88;5062074;28;19924;-82
2024/03/12 11:44:52;;;;;;;;;;;;;;;10.17;59.43;97880.66;5057822;28;19929;-82
2024/03/12 11:47:28;;;;;;;;;;;;;;;10.33;59.11;97873.75;5066689;28;19929;-83
2024/03/12 11:49:56;;;;;;;;;;;;;;;10.40;59.05;97866.00;5049132;28;20318;-82
2024/03/12 11:52:27;;;;;;;;;;;;;;;10.43;58.70;97861.84;5054416;28;19924;-82
2024/03/12 11:54:55;;;;;;;;;;;;;;;10.54;58.46;97865.88;5051060;28;20019;-82
2024/03/12 11:57:23;;;;;;;;;;;;;;;10.62;58.20;97870.59;5049437;28;20047;-82
2024/03/12 11:59:54;;;;;;;;;;;;;;;10.64;58.40;97873.78;5081571;28;19924;-82
2024/03/12 12:02:23;;;;;;;;;;;;;;;10.74;58.06;97870.00;5075224;28;19929;-82
2024/03/12 12:04:52;;;;;;;;;;;;;;;10.74;57.92;97868.06;5074621;28;19931;-82
2024/03/12 12:07:20;;;;;;;;;;;;;;;10.78;57.70;97864.75;5077035;28;19924;-82
2024/03/12 12:09:48;;;;;;;;;;;;;;;10.69;58.00;97876.34;5083397;28;20323;-82
2024/03/12 12:12:16;;;;;;;;;;;;;;;10.57;58.19;97869.91;5075138;28;20338;-82
2024/03/12 12:14:45;;;;;;;;;;;;;;;10.54;58.63;97873.25;5094326;28;19928;-82
2024/03/12 12:17:14;;;;;;;;;;;;;;;10.59;58.34;97879.34;5094061;28;19928;-82
2024/03/12 12:19:43;;;;;;;;;;;;;;;10.58;58.42;97874.22;5086590;28;19945;-82
2024/03/12 12:22:11;;;;;;;;;;;;;;;10.62;58.33;97873.28;5068836;28;19923;-82
2024/03/12 12:24:39;;;;;;;;;;;;;;;10.49;58.66;97866.84;5092563;28;19955;-82
2024/03/12 12:27:08;;;;;;;;;;;;;;;10.39;59.25;97869.03;5093438;28;19928;-82
2024/03/12 12:29:35;;;;;;;;;;;;;;;10.31;59.56;97880.63;5074928;28;19924;-82
2024/03/12 12:32:03;;;;;;;;;;;;;;;10.38;59.83;97870.91;5077640;28;19928;-83
2024/03/12 12:34:32;;;;;;;;;;;;;;;10.53;59.56;97866.22;5075999;28;19924;-87
2024/03/12 12:40:36;;;;;;;;;;;;;;;10.53;59.27;97866.22;5075429;28;19924;-87
2024/03/12 12:43:05;;;;;;;;;;;;;;;10.55;59.46;97864.00;5079313;28;19931;-88
2024/03/12 12:45:34;;;;;;;;;;;;;;;10.69;59.39;97868.22;5083026;28;20023;-87
2024/03/12 12:48:04;;;;;;;;;;;;;;;10.81;58.82;97861.38;5094995;28;19935;-87
2024/03/12 12:50:33;;;;;;;;;;;;;;;10.98;58.65;97867.69;5095995;28;19931;-87
2024/03/12 12:53:02;;;;;;;;;;;;;;;11.00;58.58;97870.09;5073204;28;19931;-86
2024/03/12 12:55:30;;;;;;;;;;;;;;;10.97;57.99;97866.09;5087479;28;19924;-87
2024/03/12 12:57:59;;;;;;;;;;;;;;;10.98;58.37;97869.63;5059867;28;19931;-87
2024/03/12 13:00:27;;;;;;;;;;;;;;;11.06;58.48;97868.03;5083916;28;19927;-87
2024/03/12 13:03:10;;;;;;;;;;;;;;;11.15;58.38;97868.88;5095203;28;19946;-87
2024/03/12 13:05:41;;;;;;;;;;;;;;;11.17;58.02;97869.34;5095311;28;19924;-87
2024/03/12 13:08:21;;;;;;;;;;;;;;;11.17;57.79;97863.91;5084869;28;20453;-87
2024/03/12 13:11:00;;;;;;;;;;;;;;;11.24;57.58;97869.69;5081618;28;20365;-87
2024/03/12 13:13:28;;;;;;;;;;;;;;;11.20;57.75;97877.69;5077301;28;19924;-87
2024/03/12 13:15:57;;;;;;;;;;;;;;;11.18;57.54;97865.50;5076929;28;19924;-87
2024/03/12 13:18:25;;;;;;;;;;;;;;;11.17;57.44;97870.13;5078309;28;19928;-87
2024/03/12 13:21:23;;;;;;;;;;;;;;;11.23;57.58;97873.50;5094670;28;19928;-87